sensor_id;sensor_type;location;lat;lon;timestamp;pressure;altitude;pressure_sealevel;temperature;humidity
48774;BME280;34576;0.000;0.000;2023-04-19T00:03:04;96988.22;;;16.54;65.38
48774;BME280;34576;0.000;0.000;2023-04-19T00:10:05;96991.44;;;16.56;65.46
48774;BME280;34576;0.000;0.000;2023-04-19T00:17:06;96993.03;;;16.58;64.61
48774;BME280;34576;0.000;0.000;2023-04-19T00:24:06;96981.59;;;16.57;64.44
48774;BME280;34576;0.000;0.000;2023-04-19T00:31:06;96978.94;;;16.57;64.87
48774;BME280;34576;0.000;0.000;2023-04-19T00:38:07;96976.28;;;16.57;64.78
48774;BME280;34576;0.000;0.000;2023-04-19T00:45:07;96980.28;;;16.60;64.94
48774;BME280;34576;0.000;0.000;2023-04-19T00:52:09;96974.19;;;16.59;64.71
48774;BME280;34576;0.000;0.000;2023-04-19T00:59:10;96968.31;;;16.57;65.04
48774;BME280;34576;0.000;0.000;2023-04-19T01:06:11;96965.16;;;16.60;65.48
48774;BME280;34576;0.000;0.000;2023-04-19T01:13:15;96964.63;;;16.58;64.83
48774;BME280;34576;0.000;0.000;2023-04-19T01:20:15;96965.16;;;16.60;64.70
48774;BME280;34576;0.000;0.000;2023-04-19T01:27:21;96953.72;;;16.60;65.23
48774;BME280;34576;0.000;0.000;2023-04-19T01:34:24;96955.03;;;16.57;65.14
48774;BME280;34576;0.000;0.000;2023-04-19T01:41:24;96952.94;;;16.59;65.14
48774;BME280;34576;0.000;0.000;2023-04-19T01:48:26;96931.69;;;16.59;64.98
48774;BME280;34576;0.000;0.000;2023-04-19T01:55:27;96931.97;;;16.58;64.10
48774;BME280;34576;0.000;0.000;2023-04-19T02:02:27;96920.25;;;16.59;64.93
48774;BME280;34576;0.000;0.000;2023-04-19T02:09:28;96927.69;;;16.56;65.10
48774;BME280;34576;0.000;0.000;2023-04-19T02:16:28;96927.69;;;16.56;65.82
48774;BME280;34576;0.000;0.000;2023-04-19T02:23:28;96920.25;;;16.53;65.51
48774;BME280;34576;0.000;0.000;2023-04-19T02:30:28;96916.56;;;16.60;65.56
48774;BME280;34576;0.000;0.000;2023-04-19T02:37:29;96914.94;;;16.59;64.76
48774;BME280;34576;0.000;0.000;2023-04-19T02:44:30;96916.81;;;16.58;66.14
48774;BME280;34576;0.000;0.000;2023-04-19T02:51:30;96906.72;;;16.60;65.04
48774;BME280;34576;0.000;0.000;2023-04-19T02:58:31;96911.75;;;16.56;65.58
48774;BME280;34576;0.000;0.000;2023-04-19T03:05:37;96908.06;;;16.58;65.05
48774;BME280;34576;0.000;0.000;2023-04-19T03:12:37;96901.94;;;16.57;65.58
48774;BME280;34576;0.000;0.000;2023-04-19T03:19:37;96897.44;;;16.58;66.14
48774;BME280;34576;0.000;0.000;2023-04-19T03:26:39;96895.03;;;16.56;65.28
48774;BME280;34576;0.000;0.000;2023-04-19T03:33:40;96895.31;;;16.60;65.28
48774;BME280;34576;0.000;0.000;2023-04-19T03:40:41;96892.91;;;16.58;65.13
48774;BME280;34576;0.000;0.000;2023-04-19T03:47:44;96883.06;;;16.59;67.29
48774;BME280;34576;0.000;0.000;2023-04-19T03:54:45;96881.53;;;16.78;69.97
48774;BME280;34576;0.000;0.000;2023-04-19T04:01:58;96876.22;;;16.78;70.45
48774;BME280;34576;0.000;0.000;2023-04-19T04:08:59;96886.84;;;16.78;71.43
48774;BME280;34576;0.000;0.000;2023-04-19T04:16:00;96887.66;;;16.79;71.65
48774;BME280;34576;0.000;0.000;2023-04-19T04:23:00;96889.50;;;16.78;71.81
48774;BME280;34576;0.000;0.000;2023-04-19T04:30:01;96890.84;;;16.86;72.08
48774;BME280;34576;0.000;0.000;2023-04-19T04:37:03;96892.00;;;17.05;72.92
48774;BME280;34576;0.000;0.000;2023-04-19T04:44:04;96913.53;;;14.29;62.48
48774;BME280;34576;0.000;0.000;2023-04-19T04:51:05;96910.16;;;14.56;59.63
48774;BME280;34576;0.000;0.000;2023-04-19T04:58:06;96902.22;;;16.02;61.15
48774;BME280;34576;0.000;0.000;2023-04-19T05:05:17;96907.06;;;16.16;63.17
48774;BME280;34576;0.000;0.000;2023-04-19T05:12:18;96902.31;;;16.23;64.20
48774;BME280;34576;0.000;0.000;2023-04-19T05:19:18;96901.53;;;16.22;64.97
48774;BME280;34576;0.000;0.000;2023-04-19T05:26:24;96906.34;;;16.36;64.92
48774;BME280;34576;0.000;0.000;2023-04-19T05:33:26;96912.66;;;16.25;65.87
48774;BME280;34576;0.000;0.000;2023-04-19T05:40:28;96914.84;;;16.28;65.84
48774;BME280;34576;0.000;0.000;2023-04-19T05:47:29;96914.00;;;16.22;66.31
48774;BME280;34576;0.000;0.000;2023-04-19T05:54:48;96913.19;;;16.21;66.52
48774;BME280;34576;0.000;0.000;2023-04-19T06:01:48;96910.00;;;16.25;66.39
48774;BME280;34576;0.000;0.000;2023-04-19T06:08:49;96914.25;;;16.20;66.46
48774;BME280;34576;0.000;0.000;2023-04-19T06:15:49;96925.16;;;16.24;66.80
48774;BME280;34576;0.000;0.000;2023-04-19T06:22:50;96920.63;;;16.25;66.62
48774;BME280;34576;0.000;0.000;2023-04-19T06:29:50;96922.50;;;16.24;66.87
48774;BME280;34576;0.000;0.000;2023-04-19T06:36:51;96927.03;;;16.24;66.86
48774;BME280;34576;0.000;0.000;2023-04-19T06:43:51;96926.47;;;16.21;66.89
48774;BME280;34576;0.000;0.000;2023-04-19T06:50:51;96924.38;;;16.24;66.81
48774;BME280;34576;0.000;0.000;2023-04-19T06:57:51;96923.53;;;16.23;66.83
48774;BME280;34576;0.000;0.000;2023-04-19T07:04:52;96925.16;;;16.24;66.88
48774;BME280;34576;0.000;0.000;2023-04-19T07:11:52;96925.66;;;16.21;66.74
48774;BME280;34576;0.000;0.000;2023-04-19T07:18:52;96924.88;;;16.20;66.92
48774;BME280;34576;0.000;0.000;2023-04-19T07:25:53;96929.66;;;16.24;66.79
48774;BME280;34576;0.000;0.000;2023-04-19T07:32:53;96926.19;;;16.23;66.68
48774;BME280;34576;0.000;0.000;2023-04-19T07:39:54;96916.41;;;16.24;66.68
48774;BME280;34576;0.000;0.000;2023-04-19T07:46:54;96923.28;;;16.25;66.62
48774;BME280;34576;0.000;0.000;2023-04-19T07:53:55;96921.97;;;16.22;66.81
48774;BME280;34576;0.000;0.000;2023-04-19T08:00:55;96912.94;;;16.23;66.65
48774;BME280;34576;0.000;0.000;2023-04-19T08:07:55;96915.09;;;16.26;66.63
48774;BME280;34576;0.000;0.000;2023-04-19T08:14:56;96911.09;;;16.29;66.54
48774;BME280;34576;0.000;0.000;2023-04-19T08:21:56;96915.41;;;16.35;66.19
48774;BME280;34576;0.000;0.000;2023-04-19T08:28:56;96919.41;;;16.37;66.13
48774;BME280;34576;0.000;0.000;2023-04-19T08:35:57;96913.81;;;16.39;65.97
48774;BME280;34576;0.000;0.000;2023-04-19T08:42:57;96900.56;;;16.39;66.06
48774;BME280;34576;0.000;0.000;2023-04-19T08:49:59;96900.59;;;16.49;65.58
48774;BME280;34576;0.000;0.000;2023-04-19T08:56:59;96902.41;;;16.49;65.62
48774;BME280;34576;0.000;0.000;2023-04-19T09:04:03;96900.59;;;16.49;65.67
48774;BME280;34576;0.000;0.000;2023-04-19T09:11:05;96892.63;;;16.49;65.63
48774;BME280;34576;0.000;0.000;2023-04-19T09:18:08;96888.34;;;16.48;65.66
48774;BME280;34576;0.000;0.000;2023-04-19T09:25:09;96881.44;;;16.47;65.58
48774;BME280;34576;0.000;0.000;2023-04-19T09:32:23;96880.41;;;16.48;65.58
48774;BME280;34576;0.000;0.000;2023-04-19T09:53:33;96863.94;;;16.51;65.57
48774;BME280;34576;0.000;0.000;2023-04-19T10:00:35;96862.34;;;16.45;65.70
48774;BME280;34576;0.000;0.000;2023-04-19T10:07:36;96855.41;;;16.44;65.43
48774;BME280;34576;0.000;0.000;2023-04-19T10:14:36;96855.72;;;16.48;65.38
48774;BME280;34576;0.000;0.000;2023-04-19T10:21:39;96840.53;;;16.43;65.55
48774;BME280;34576;0.000;0.000;2023-04-19T10:28:40;96846.41;;;16.45;65.44
48774;BME280;34576;0.000;0.000;2023-04-19T10:35:41;96841.88;;;16.46;65.45
48774;BME280;34576;0.000;0.000;2023-04-19T10:43:26;96839.47;;;16.44;65.56
48774;BME280;34576;0.000;0.000;2023-04-19T10:50:07;96838.97;;;16.47;65.45
48774;BME280;34576;0.000;0.000;2023-04-19T10:57:07;96835.78;;;16.45;65.46
48774;BME280;34576;0.000;0.000;2023-04-19T11:11:09;96812.94;;;16.44;65.45
48774;BME280;34576;0.000;0.000;2023-04-19T11:18:16;96809.50;;;16.44;65.45
48774;BME280;34576;0.000;0.000;2023-04-19T11:25:17;96803.13;;;16.45;65.32
48774;BME280;34576;0.000;0.000;2023-04-19T11:32:19;96797.00;;;16.44;65.35
48774;BME280;34576;0.000;0.000;2023-04-19T11:39:20;96792.75;;;16.43;65.42
48774;BME280;34576;0.000;0.000;2023-04-19T11:46:20;96805.78;;;16.45;65.20
48774;BME280;34576;0.000;0.000;2023-04-19T11:53:21;96790.09;;;16.43;65.39
48774;BME280;34576;0.000;0.000;2023-04-19T12:00:28;96787.97;;;16.40;65.25
48774;BME280;34576;0.000;0.000;2023-04-19T12:07:29;96784.78;;;16.43;65.20
48774;BME280;34576;0.000;0.000;2023-04-19T12:14:29;96770.97;;;16.41;65.40
48774;BME280;34576;0.000;0.000;2023-04-19T12:21:30;96773.09;;;16.44;65.29
48774;BME280;34576;0.000;0.000;2023-04-19T12:28:32;96759.84;;;16.44;65.44
48774;BME280;34576;0.000;0.000;2023-04-19T12:35:32;96749.47;;;16.43;65.22
48774;BME280;34576;0.000;0.000;2023-04-19T12:42:33;96752.91;;;16.43;65.21
48774;BME280;34576;0.000;0.000;2023-04-19T12:49:33;96739.94;;;16.47;65.20
48774;BME280;34576;0.000;0.000;2023-04-19T12:56:33;96735.16;;;16.44;65.55
48774;BME280;34576;0.000;0.000;2023-04-19T13:03:34;96729.03;;;16.48;65.15
48774;BME280;34576;0.000;0.000;2023-04-19T13:10:35;96718.41;;;16.48;65.15
48774;BME280;34576;0.000;0.000;2023-04-19T13:17:36;96713.66;;;16.45;65.51
48774;BME280;34576;0.000;0.000;2023-04-19T13:24:36;96707.53;;;16.45;65.25
48774;BME280;34576;0.000;0.000;2023-04-19T13:31:37;96704.91;;;16.45;65.40
48774;BME280;34576;0.000;0.000;2023-04-19T13:38:37;96698.75;;;16.44;65.45
48774;BME280;34576;0.000;0.000;2023-04-19T13:45:37;96683.88;;;16.43;65.40
48774;BME280;34576;0.000;0.000;2023-04-19T13:52:38;96678.84;;;16.42;65.31
48774;BME280;34576;0.000;0.000;2023-04-19T13:59:38;96670.88;;;16.42;65.29
48774;BME280;34576;0.000;0.000;2023-04-19T14:06:38;96666.38;;;16.42;65.20
48774;BME280;34576;0.000;0.000;2023-04-19T14:13:39;96649.38;;;16.38;65.33
48774;BME280;34576;0.000;0.000;2023-04-19T14:20:40;96635.84;;;16.39;65.27
48774;BME280;34576;0.000;0.000;2023-04-19T14:27:40;96635.06;;;16.39;65.26
48774;BME280;34576;0.000;0.000;2023-04-19T14:34:40;96629.75;;;16.39;65.25
48774;BME280;34576;0.000;0.000;2023-04-19T14:41:40;96622.31;;;16.41;65.22
48774;BME280;34576;0.000;0.000;2023-04-19T14:48:41;96622.81;;;16.43;65.16
48774;BME280;34576;0.000;0.000;2023-04-19T14:55:41;96617.00;;;16.41;65.14
48774;BME280;34576;0.000;0.000;2023-04-19T15:02:41;96599.19;;;16.42;65.17
48774;BME280;34576;0.000;0.000;2023-04-19T15:09:42;96599.75;;;16.44;64.99
48774;BME280;34576;0.000;0.000;2023-04-19T15:16:42;96594.94;;;16.46;64.98
48774;BME280;34576;0.000;0.000;2023-04-19T15:23:42;96591.25;;;16.47;65.09
48774;BME280;34576;0.000;0.000;2023-04-19T15:30:43;96589.91;;;16.44;65.02
48774;BME280;34576;0.000;0.000;2023-04-19T15:37:43;96589.66;;;16.41;65.15
48774;BME280;34576;0.000;0.000;2023-04-19T15:44:45;96584.09;;;16.42;65.18
48774;BME280;34576;0.000;0.000;2023-04-19T15:51:45;96580.09;;;16.39;65.34
48774;BME280;34576;0.000;0.000;2023-04-19T15:58:45;96576.38;;;16.35;65.30
48774;BME280;34576;0.000;0.000;2023-04-19T16:05:46;96576.94;;;16.37;65.08
48774;BME280;34576;0.000;0.000;2023-04-19T16:12:49;96588.84;;;16.40;65.15
48774;BME280;34576;0.000;0.000;2023-04-19T16:19:49;96587.78;;;16.41;65.15
48774;BME280;34576;0.000;0.000;2023-04-19T16:26:50;96604.78;;;16.40;65.20
48774;BME280;34576;0.000;0.000;2023-04-19T16:33:50;96600.00;;;16.37;65.23
48774;BME280;34576;0.000;0.000;2023-04-19T16:40:50;96598.94;;;16.38;65.19
48774;BME280;34576;0.000;0.000;2023-04-19T16:47:50;96591.53;;;16.35;65.14
48774;BME280;34576;0.000;0.000;2023-04-19T16:54:51;96582.47;;;16.36;65.01
48774;BME280;34576;0.000;0.000;2023-04-19T17:01:52;96587.78;;;16.36;65.01
48774;BME280;34576;0.000;0.000;2023-04-19T17:08:54;96580.91;;;16.35;65.05
48774;BME280;34576;0.000;0.000;2023-04-19T17:15:54;96578.78;;;16.37;64.84
48774;BME280;34576;0.000;0.000;2023-04-19T17:22:54;96576.66;;;16.34;65.09
48774;BME280;34576;0.000;0.000;2023-04-19T17:29:55;96573.47;;;16.21;65.12
48774;BME280;34576;0.000;0.000;2023-04-19T17:36:55;96579.28;;;16.29;65.08
48774;BME280;34576;0.000;0.000;2023-04-19T17:43:55;96581.19;;;16.33;64.90
48774;BME280;34576;0.000;0.000;2023-04-19T17:50:56;96585.94;;;16.31;65.02
48774;BME280;34576;0.000;0.000;2023-04-19T17:57:56;96589.41;;;16.32;64.85
48774;BME280;34576;0.000;0.000;2023-04-19T18:04:56;96583.56;;;16.30;64.69
48774;BME280;34576;0.000;0.000;2023-04-19T18:11:56;96596.81;;;16.30;64.82
48774;BME280;34576;0.000;0.000;2023-04-19T18:18:57;96600.81;;;16.22;64.97
48774;BME280;34576;0.000;0.000;2023-04-19T18:26:01;96608.50;;;16.24;64.85
48774;BME280;34576;0.000;0.000;2023-04-19T18:33:01;96610.63;;;16.21;64.99
48774;BME280;34576;0.000;0.000;2023-04-19T18:40:02;96622.84;;;16.22;64.97
48774;BME280;34576;0.000;0.000;2023-04-19T18:47:05;96632.41;;;16.24;64.78
48774;BME280;34576;0.000;0.000;2023-04-19T18:54:06;96629.72;;;16.18;65.03
48774;BME280;34576;0.000;0.000;2023-04-19T19:01:06;96638.75;;;16.17;64.96
48774;BME280;34576;0.000;0.000;2023-04-19T19:08:07;96654.16;;;16.20;64.89
48774;BME280;34576;0.000;0.000;2023-04-19T19:15:07;96659.47;;;16.20;64.81
48774;BME280;34576;0.000;0.000;2023-04-19T19:22:08;96658.41;;;16.16;64.94
48774;BME280;34576;0.000;0.000;2023-04-19T19:29:09;96664.78;;;16.20;64.67
48774;BME280;34576;0.000;0.000;2023-04-19T19:36:09;96670.34;;;16.14;64.86
48774;BME280;34576;0.000;0.000;2023-04-19T19:43:10;96661.31;;;16.15;64.87
48774;BME280;34576;0.000;0.000;2023-04-19T19:50:11;96645.41;;;16.15;64.83
48774;BME280;34576;0.000;0.000;2023-04-19T19:57:13;96644.84;;;16.13;64.97
48774;BME280;34576;0.000;0.000;2023-04-19T20:04:13;96628.13;;;16.07;64.92
48774;BME280;34576;0.000;0.000;2023-04-19T20:11:13;96618.06;;;16.09;64.91
48774;BME280;34576;0.000;0.000;2023-04-19T20:18:14;96612.75;;;16.09;64.70
48774;BME280;34576;0.000;0.000;2023-04-19T20:25:16;96622.03;;;16.07;64.75
48774;BME280;34576;0.000;0.000;2023-04-19T20:32:16;96604.78;;;16.09;64.77
48774;BME280;34576;0.000;0.000;2023-04-19T20:39:16;96602.41;;;16.18;65.17
48774;BME280;34576;0.000;0.000;2023-04-19T20:46:17;96590.47;;;16.31;64.60
48774;BME280;34576;0.000;0.000;2023-04-19T20:53:18;96594.69;;;16.47;64.37
48774;BME280;34576;0.000;0.000;2023-04-19T21:00:18;96589.38;;;16.58;62.84
48774;BME280;34576;0.000;0.000;2023-04-19T21:07:19;96584.31;;;16.61;62.68
48774;BME280;34576;0.000;0.000;2023-04-19T21:14:19;96586.44;;;16.64;62.74
48774;BME280;34576;0.000;0.000;2023-04-19T21:21:19;96573.97;;;16.65;64.12
48774;BME280;34576;0.000;0.000;2023-04-19T21:28:20;96576.09;;;16.68;63.44
48774;BME280;34576;0.000;0.000;2023-04-19T21:35:21;96586.16;;;16.66;64.03
48774;BME280;34576;0.000;0.000;2023-04-19T21:42:21;96585.66;;;16.69;62.94
48774;BME280;34576;0.000;0.000;2023-04-19T21:49:22;96580.34;;;16.69;62.58
48774;BME280;34576;0.000;0.000;2023-04-19T21:56:22;96580.34;;;16.69;62.70
48774;BME280;34576;0.000;0.000;2023-04-19T22:03:22;96576.09;;;16.68;62.64
48774;BME280;34576;0.000;0.000;2023-04-19T22:10:23;96579.53;;;16.68;62.71
48774;BME280;34576;0.000;0.000;2023-04-19T22:17:23;96581.66;;;16.66;62.75
48774;BME280;34576;0.000;0.000;2023-04-19T22:24:23;96564.91;;;16.66;62.91
48774;BME280;34576;0.000;0.000;2023-04-19T22:31:24;96560.16;;;16.63;63.10
48774;BME280;34576;0.000;0.000;2023-04-19T22:38:25;96568.13;;;16.63;63.32
48774;BME280;34576;0.000;0.000;2023-04-19T22:45:25;96559.09;;;16.64;63.24
48774;BME280;34576;0.000;0.000;2023-04-19T22:52:25;96542.88;;;16.60;63.30
48774;BME280;34576;0.000;0.000;2023-04-19T22:59:26;96537.31;;;16.67;63.19
48774;BME280;34576;0.000;0.000;2023-04-19T23:06:27;96525.84;;;16.71;62.94
48774;BME280;34576;0.000;0.000;2023-04-19T23:13:27;96513.34;;;16.77;62.90
48774;BME280;34576;0.000;0.000;2023-04-19T23:20:28;96498.75;;;16.80;62.62
48774;BME280;34576;0.000;0.000;2023-04-19T23:27:29;96489.97;;;16.84;62.73
48774;BME280;34576;0.000;0.000;2023-04-19T23:34:30;96480.16;;;16.85;62.73
48774;BME280;34576;0.000;0.000;2023-04-19T23:41:30;96471.66;;;16.88;62.79
48774;BME280;34576;0.000;0.000;2023-04-19T23:48:30;96467.88;;;16.99;63.52
48774;BME280;34576;0.000;0.000;2023-04-19T23:55:30;96462.06;;;16.92;65.43
